createdAt,value
2023-06-25T00:00:10.649Z,16.7
2023-06-25T00:30:24.061Z,16.3
2023-06-25T01:00:09.419Z,16
2023-06-25T01:30:01.604Z,15.5
2023-06-25T02:00:24.073Z,15.1
2023-06-25T02:30:02.635Z,15.1
2023-06-25T03:00:10.103Z,14.5
2023-06-25T03:30:05.522Z,14.6
2023-06-25T04:00:05.600Z,14.6
2023-06-25T04:30:28.604Z,15
2023-06-25T05:00:28.385Z,15.6
2023-06-25T05:30:13.271Z,16.5
2023-06-25T05:59:59.660Z,17.1
2023-06-25T06:30:22.941Z,18.5
2023-06-25T07:00:15.548Z,19.7
2023-06-25T07:30:30.386Z,20.7
2023-06-25T08:00:02.915Z,21.9
2023-06-25T08:30:18.884Z,23.4
2023-06-25T09:00:12.368Z,23.8
2023-06-25T09:30:04.358Z,24.8
2023-06-25T10:00:20.047Z,26.4
2023-06-25T10:30:05.173Z,26.7
2023-06-25T11:00:13.542Z,26.5
2023-06-25T11:30:28.077Z,28.5
2023-06-25T12:00:28.573Z,30.6
2023-06-25T13:00:24.368Z,36.6
2023-06-25T13:30:16.896Z,37.4
2023-06-25T14:00:02.389Z,39.2
2023-06-25T14:30:24.483Z,39.3
2023-06-25T15:00:24.564Z,38.3
2023-06-25T15:30:09.908Z,40.1
2023-06-25T16:00:17.126Z,34.4
2023-06-25T16:30:03.704Z,31.5
2023-06-25T17:00:03.889Z,31.1
2023-06-25T17:30:04.914Z,28.9
2023-06-25T18:00:06.062Z,28.5
2023-06-25T18:30:07.633Z,28
2023-06-25T19:00:06.926Z,26.4
2023-06-25T19:30:08.506Z,25.3
2023-06-25T20:00:08.206Z,23.7
2023-06-25T20:30:23.649Z,23.4
2023-06-25T21:00:03.115Z,21.9
2023-06-25T21:30:17.959Z,21.6
2023-06-25T22:00:14.003Z,21
2023-06-25T22:30:05.864Z,20.5
2023-06-25T23:00:21.300Z,19.6
2023-06-25T23:30:06.579Z,19.4
